createdAt,value
2019-04-05T00:00:38.728Z,39.85
2019-04-05T00:03:08.146Z,39.79
2019-04-05T00:05:37.567Z,39.63
2019-04-05T00:08:07.028Z,39.56
2019-04-05T00:10:36.542Z,39.58
2019-04-05T00:13:05.951Z,39.69
2019-04-05T00:15:37.989Z,39.79
2019-04-05T00:18:06.742Z,39.88
2019-04-05T00:20:36.180Z,39.79
2019-04-05T00:23:05.610Z,39.97
2019-04-05T00:25:35.041Z,40.10
2019-04-05T00:28:04.465Z,40.14
2019-04-05T00:30:33.974Z,40.11
2019-04-05T00:33:03.409Z,39.96
2019-04-05T00:35:32.827Z,40.01
2019-04-05T00:38:02.253Z,39.92
2019-04-05T00:40:31.698Z,40.02
2019-04-05T00:43:01.136Z,39.98
2019-04-05T00:45:30.552Z,40.09
2019-04-05T00:47:59.980Z,40.24
2019-04-05T00:50:29.411Z,40.27
2019-04-05T00:52:58.826Z,40.24
2019-04-05T00:55:28.311Z,40.21
2019-04-05T00:57:57.732Z,40.36
2019-04-05T01:00:27.154Z,40.32
2019-04-05T01:02:57.646Z,40.27
2019-04-05T01:05:27.102Z,40.31
2019-04-05T01:07:56.557Z,40.21
2019-04-05T01:10:25.964Z,40.26
2019-04-05T01:12:55.393Z,40.27
2019-04-05T01:15:24.823Z,40.31
2019-04-05T01:17:54.258Z,40.28
2019-04-05T01:20:23.681Z,40.40
2019-04-05T01:22:53.110Z,40.27
2019-04-05T01:25:22.535Z,40.35
2019-04-05T01:27:51.956Z,40.39
2019-04-05T01:30:21.386Z,40.50
2019-04-05T01:32:50.811Z,40.55
2019-04-05T01:35:20.238Z,40.71
2019-04-05T01:37:49.671Z,40.71
2019-04-05T01:40:19.099Z,40.43
2019-04-05T01:42:48.548Z,40.44
2019-04-05T01:45:18.003Z,40.44
2019-04-05T01:47:47.419Z,40.57
2019-04-05T01:50:17.258Z,40.61
2019-04-05T01:52:47.115Z,40.73
2019-04-05T01:55:16.556Z,40.94
2019-04-05T01:57:46.049Z,41.07
2019-04-05T02:00:15.522Z,41.04
2019-04-05T02:02:44.948Z,41.15
2019-04-05T02:05:14.383Z,41.24
2019-04-05T02:07:43.820Z,41.44
2019-04-05T02:10:13.235Z,41.40
2019-04-05T02:12:42.672Z,41.38
2019-04-05T02:15:22.497Z,41.59
2019-04-05T02:17:51.917Z,41.68
2019-04-05T02:20:21.340Z,41.59
2019-04-05T02:22:50.789Z,41.54
2019-04-05T02:25:20.206Z,41.57
2019-04-05T02:27:49.648Z,41.80
2019-04-05T02:30:19.144Z,41.87
2019-04-05T02:32:48.561Z,41.80
2019-04-05T02:35:17.978Z,41.68
2019-04-05T02:37:47.425Z,41.93
2019-04-05T02:40:18.552Z,41.82
2019-04-05T02:42:48.833Z,41.93
2019-04-05T02:45:18.641Z,41.92
2019-04-05T02:47:51.840Z,41.85
2019-04-05T02:50:21.406Z,41.91
2019-04-05T02:52:50.828Z,41.82
2019-04-05T02:55:20.263Z,41.84
2019-04-05T02:57:49.690Z,41.77
2019-04-05T03:00:19.106Z,41.70
2019-04-05T03:02:48.796Z,41.75
2019-04-05T03:05:18.219Z,41.65
2019-04-05T03:07:47.660Z,41.82
2019-04-05T03:10:54.939Z,41.73
2019-04-05T03:13:24.626Z,41.80
2019-04-05T03:15:54.155Z,41.84
2019-04-05T03:18:23.896Z,41.63
2019-04-05T03:20:53.332Z,41.70
2019-04-05T03:23:22.762Z,41.64
2019-04-05T03:25:52.215Z,41.60
2019-04-05T03:28:21.655Z,41.59
2019-04-05T03:30:51.129Z,41.57
2019-04-05T03:33:20.524Z,41.53
2019-04-05T03:35:49.942Z,41.40
2019-04-05T03:38:19.694Z,41.29
2019-04-05T03:40:49.127Z,41.30
2019-04-05T03:43:18.566Z,41.39
2019-04-05T03:45:48.285Z,41.40
2019-04-05T03:48:17.739Z,41.37
2019-04-05T03:50:47.406Z,41.33
2019-04-05T03:53:16.882Z,41.32
2019-04-05T03:55:46.344Z,41.26
2019-04-05T03:58:15.759Z,41.25
2019-04-05T04:00:45.233Z,41.13
2019-04-05T04:03:14.665Z,41.16
2019-04-05T04:05:44.142Z,41.09
2019-04-05T04:08:13.638Z,41.02
2019-04-05T04:10:43.159Z,41.07
2019-04-05T04:13:12.630Z,41.02
2019-04-05T04:15:42.427Z,41.05
2019-04-05T04:18:11.901Z,40.97
2019-04-05T04:20:45.616Z,40.84
2019-04-05T04:23:15.059Z,40.94
2019-04-05T04:25:44.484Z,40.84
2019-04-05T04:28:13.959Z,40.85
2019-04-05T04:30:43.377Z,40.75
2019-04-05T04:33:12.881Z,40.70
2019-04-05T04:35:42.546Z,40.63
2019-04-05T04:38:11.983Z,40.44
2019-04-05T04:40:41.417Z,40.48
2019-04-05T04:43:10.885Z,40.12
2019-04-05T04:45:40.351Z,40.15
2019-04-05T04:48:09.840Z,40.05
2019-04-05T04:50:39.255Z,40.12
2019-04-05T04:53:08.800Z,40.12
2019-04-05T04:55:38.290Z,39.91
2019-04-05T04:58:07.760Z,39.69
2019-04-05T05:00:37.175Z,39.67
2019-04-05T05:03:06.883Z,39.80
2019-04-05T05:05:36.323Z,39.94
2019-04-05T05:08:05.862Z,39.94
2019-04-05T05:10:35.311Z,40.07
2019-04-05T05:13:04.740Z,40.01
2019-04-05T05:15:34.286Z,40.19
2019-04-05T05:18:04.277Z,40.07
2019-04-05T05:20:33.759Z,40.10
2019-04-05T05:23:03.217Z,40.26
2019-04-05T05:25:32.661Z,40.34
2019-04-05T05:28:02.105Z,40.53
2019-04-05T05:30:31.611Z,40.91
2019-04-05T05:33:01.076Z,39.89
2019-04-05T05:35:30.515Z,37.27
2019-04-05T05:37:59.971Z,40.37
2019-04-05T05:40:35.209Z,40.56
2019-04-05T05:43:00.571Z,40.47
2019-04-05T05:45:30.059Z,40.53
2019-04-05T05:47:59.515Z,40.16
2019-04-05T05:50:28.995Z,40.07
2019-04-05T05:52:58.473Z,40.05
2019-04-05T05:55:30.100Z,40.19
2019-04-05T05:57:59.071Z,40.00
2019-04-05T06:00:31.052Z,39.97
2019-04-05T06:02:59.700Z,39.87
2019-04-05T06:05:29.120Z,39.86
2019-04-05T06:07:58.726Z,39.75
2019-04-05T06:10:29.715Z,39.66
2019-04-05T06:12:59.738Z,39.61
2019-04-05T06:15:29.164Z,39.55
2019-04-05T06:18:04.654Z,39.56
2019-04-05T06:20:30.071Z,39.71
2019-04-05T06:22:59.492Z,39.65
2019-04-05T06:25:28.960Z,39.70
2019-04-05T06:27:59.915Z,39.69
2019-04-05T06:30:29.530Z,39.73
2019-04-05T06:32:59.000Z,39.86
2019-04-05T06:35:28.435Z,39.92
2019-04-05T06:37:58.000Z,39.83
2019-04-05T06:40:39.735Z,39.93
2019-04-05T06:42:58.590Z,39.93
2019-04-05T06:45:28.011Z,39.78
2019-04-05T06:47:57.481Z,39.63
2019-04-05T06:50:26.997Z,39.61
2019-04-05T06:52:56.388Z,39.53
2019-04-05T06:55:25.807Z,39.46
2019-04-05T06:57:55.233Z,39.58
2019-04-05T07:00:29.648Z,39.58
2019-04-05T07:02:59.847Z,39.59
2019-04-05T07:05:29.323Z,39.54
2019-04-05T07:07:58.755Z,39.47
2019-04-05T07:10:28.187Z,39.63
2019-04-05T07:12:57.958Z,39.57
2019-04-05T07:15:27.451Z,39.68
2019-04-05T07:17:56.929Z,39.69
2019-04-05T07:20:26.351Z,39.59
2019-04-05T07:22:55.764Z,39.56
2019-04-05T07:25:25.206Z,39.57
2019-04-05T07:27:54.638Z,39.56
2019-04-05T07:30:24.224Z,39.52
2019-04-05T07:32:53.662Z,39.57
2019-04-05T07:35:32.892Z,39.58
2019-04-05T07:37:54.297Z,39.53
2019-04-05T07:40:23.725Z,39.48
2019-04-05T07:42:53.161Z,39.54
2019-04-05T07:45:22.597Z,39.50
2019-04-05T07:47:52.036Z,39.59
2019-04-05T07:50:21.474Z,39.60
2019-04-05T07:52:50.917Z,39.52
2019-04-05T07:55:20.599Z,39.31
2019-04-05T07:57:50.045Z,39.51
2019-04-05T08:00:52.427Z,39.83
2019-04-05T08:03:22.035Z,40.09
2019-04-05T08:05:51.680Z,40.21
2019-04-05T08:08:34.084Z,40.03
2019-04-05T08:11:03.517Z,39.95
2019-04-05T08:13:32.965Z,39.82
2019-04-05T08:16:02.396Z,39.68
2019-04-05T08:18:31.807Z,36.33
2019-04-05T08:21:01.238Z,34.56
2019-04-05T08:23:30.694Z,34.31
2019-04-05T08:26:00.135Z,34.47
2019-04-05T08:28:29.939Z,34.50
2019-04-05T08:30:59.328Z,33.84
2019-04-05T08:33:28.753Z,33.12
2019-04-05T08:35:58.207Z,33.07
2019-04-05T08:38:27.635Z,32.47
2019-04-05T08:40:57.090Z,31.77
2019-04-05T08:43:26.524Z,31.33
2019-04-05T08:45:55.963Z,31.80
2019-04-05T08:48:25.413Z,31.41
2019-04-05T08:50:54.849Z,31.22
2019-04-05T08:53:24.281Z,30.48
2019-04-05T08:55:53.726Z,30.14
2019-04-05T08:58:32.799Z,29.51
2019-04-05T09:00:54.307Z,29.35
2019-04-05T09:03:23.888Z,29.01
2019-04-05T09:05:53.374Z,28.33
2019-04-05T09:08:23.027Z,28.83
2019-04-05T09:10:54.599Z,28.96
2019-04-05T09:13:23.758Z,29.21
2019-04-05T09:15:53.173Z,29.18
2019-04-05T09:18:22.627Z,29.35
2019-04-05T09:20:52.081Z,29.93
2019-04-05T09:23:21.532Z,30.33
2019-04-05T09:25:50.972Z,30.69
2019-04-05T09:28:20.433Z,30.90
2019-04-05T09:30:51.817Z,30.90
2019-04-05T09:33:21.020Z,30.99
2019-04-05T09:35:50.469Z,31.13
2019-04-05T09:38:19.947Z,31.19
2019-04-05T09:40:49.393Z,31.28
2019-04-05T09:43:18.828Z,31.47
2019-04-05T09:45:48.270Z,31.61
2019-04-05T09:48:17.712Z,31.70
2019-04-05T09:50:47.162Z,31.87
2019-04-05T09:53:16.591Z,31.95
2019-04-05T09:55:46.019Z,32.14
2019-04-05T09:58:15.540Z,32.21
2019-04-05T10:00:44.998Z,32.34
2019-04-05T10:03:14.609Z,32.49
2019-04-05T10:05:44.039Z,32.53
2019-04-05T10:08:13.474Z,32.69
2019-04-05T10:10:42.961Z,32.78
2019-04-05T10:13:12.397Z,33.03
2019-04-05T10:15:41.813Z,33.23
2019-04-05T10:18:11.246Z,32.92
2019-04-05T10:20:40.678Z,32.76
2019-04-05T10:23:10.127Z,32.78
2019-04-05T10:25:39.559Z,32.90
2019-04-05T10:28:08.991Z,33.00
2019-04-05T10:30:38.407Z,33.10
2019-04-05T10:33:07.858Z,33.27
2019-04-05T10:35:37.259Z,33.44
2019-04-05T10:38:06.677Z,33.57
2019-04-05T10:40:36.105Z,33.68
2019-04-05T10:43:05.637Z,33.78
2019-04-05T10:45:35.115Z,33.89
2019-04-05T10:48:04.599Z,34.00
2019-04-05T10:50:34.180Z,34.10
2019-04-05T10:53:03.699Z,34.24
2019-04-05T10:55:33.140Z,34.27
2019-04-05T10:58:02.622Z,34.43
2019-04-05T11:00:32.047Z,34.45
2019-04-05T11:03:01.463Z,34.57
2019-04-05T11:05:30.905Z,34.64
2019-04-05T11:08:00.332Z,34.68
2019-04-05T11:10:29.772Z,34.82
2019-04-05T11:12:59.294Z,34.93
2019-04-05T11:15:30.961Z,34.97
2019-04-05T11:17:59.879Z,34.94
2019-04-05T11:20:29.325Z,34.95
2019-04-05T11:22:58.765Z,34.93
2019-04-05T11:25:28.302Z,34.98
2019-04-05T11:27:57.683Z,34.92
2019-04-05T11:30:46.269Z,34.98
2019-04-05T11:33:15.722Z,35.06
2019-04-05T11:35:45.262Z,35.01
2019-04-05T11:38:15.040Z,35.04
2019-04-05T11:40:44.699Z,35.07
2019-04-05T11:43:14.193Z,35.14
2019-04-05T11:45:43.655Z,35.20
2019-04-05T11:48:13.155Z,35.27
2019-04-05T11:50:42.645Z,35.34
2019-04-05T11:53:12.060Z,35.38
2019-04-05T11:55:41.530Z,35.50
2019-04-05T11:58:10.966Z,35.53
2019-04-05T12:00:52.544Z,35.66
2019-04-05T12:03:22.282Z,35.73
2019-04-05T12:05:51.711Z,35.73
2019-04-05T12:08:21.164Z,35.74
2019-04-05T12:10:50.607Z,35.83
2019-04-05T12:13:20.039Z,35.76
2019-04-05T12:15:49.460Z,35.79
2019-04-05T12:18:19.670Z,35.79
2019-04-05T12:20:58.963Z,35.81
2019-04-05T12:23:20.492Z,35.90
2019-04-05T12:25:49.896Z,35.87
2019-04-05T12:28:19.359Z,35.88
2019-04-05T12:30:49.584Z,35.90
2019-04-05T12:33:19.643Z,35.97
2019-04-05T12:35:52.535Z,35.95
2019-04-05T12:38:33.438Z,35.98
2019-04-05T12:41:03.480Z,36.02
2019-04-05T12:43:33.253Z,36.09
2019-04-05T12:46:03.057Z,36.16
2019-04-05T12:48:32.510Z,36.21
2019-04-05T12:51:05.170Z,36.13
2019-04-05T12:53:33.099Z,36.21
2019-04-05T12:56:02.605Z,36.25
2019-04-05T12:58:32.824Z,36.36
2019-04-05T13:01:02.453Z,36.41
2019-04-05T13:03:31.887Z,36.42
2019-04-05T13:06:01.326Z,36.38
2019-04-05T13:08:30.783Z,36.41
2019-04-05T13:11:00.228Z,36.53
2019-04-05T13:13:29.659Z,36.45
2019-04-05T13:15:59.599Z,36.30
2019-04-05T13:18:31.615Z,36.22
2019-04-05T13:21:02.371Z,36.13
2019-04-05T13:23:31.440Z,36.11
2019-04-05T13:26:00.881Z,36.07
2019-04-05T13:28:30.389Z,35.76
2019-04-05T13:30:59.852Z,35.62
2019-04-05T13:33:29.293Z,35.47
2019-04-05T13:35:58.736Z,35.36
2019-04-05T13:38:29.853Z,35.15
2019-04-05T13:41:01.449Z,34.79
2019-04-05T13:43:31.853Z,34.51
2019-04-05T13:46:01.716Z,34.32
2019-04-05T13:48:31.152Z,34.19
2019-04-05T13:51:00.579Z,33.98
2019-04-05T13:53:30.038Z,34.02
2019-04-05T13:55:59.572Z,33.87
2019-04-05T13:58:29.014Z,33.46
2019-04-05T14:00:58.440Z,33.12
2019-04-05T14:03:27.890Z,33.57
2019-04-05T14:05:57.359Z,33.28
2019-04-05T14:08:26.807Z,33.42
2019-04-05T14:10:56.238Z,32.58
2019-04-05T14:13:25.701Z,32.92
2019-04-05T14:15:55.171Z,33.30
2019-04-05T14:18:24.642Z,33.55
2019-04-05T14:20:54.107Z,33.75
2019-04-05T14:23:24.103Z,33.81
2019-04-05T14:25:53.600Z,33.88
2019-04-05T14:28:23.063Z,33.88
2019-04-05T14:30:52.545Z,33.93
2019-04-05T14:33:24.380Z,34.03
2019-04-05T14:35:54.742Z,34.07
2019-04-05T14:38:24.834Z,34.10
2019-04-05T14:40:54.296Z,34.11
2019-04-05T14:43:23.728Z,34.17
2019-04-05T14:45:53.161Z,33.33
2019-04-05T14:48:22.609Z,33.76
2019-04-05T14:50:52.152Z,33.97
2019-04-05T14:53:21.800Z,34.04
2019-04-05T14:55:51.407Z,34.05
2019-04-05T14:58:21.014Z,34.09
2019-04-05T15:00:50.450Z,34.19
2019-04-05T15:03:19.867Z,34.29
2019-04-05T15:05:49.380Z,34.40
2019-04-05T15:08:20.680Z,34.60
2019-04-05T15:10:51.428Z,34.65
2019-04-05T15:13:21.003Z,34.76
2019-04-05T15:15:50.455Z,34.82
2019-04-05T15:18:19.919Z,34.92
2019-04-05T15:20:49.464Z,34.97
2019-04-05T15:23:19.139Z,34.99
2019-04-05T15:25:49.914Z,35.02
2019-04-05T15:28:19.924Z,35.14
2019-04-05T15:30:49.780Z,35.16
2019-04-05T15:33:19.227Z,35.22
2019-04-05T15:35:48.661Z,35.29
2019-04-05T15:38:18.100Z,35.48
2019-04-05T15:40:47.647Z,35.59
2019-04-05T15:43:17.068Z,35.66
2019-04-05T15:45:46.559Z,34.82
2019-04-05T15:48:16.240Z,30.51
2019-04-05T15:50:45.645Z,31.10
2019-04-05T15:53:15.225Z,33.20
2019-04-05T15:55:44.656Z,34.49
2019-04-05T15:58:14.088Z,34.95
2019-04-05T16:00:44.289Z,35.33
2019-04-05T16:03:14.157Z,35.44
2019-04-05T16:05:43.685Z,35.21
2019-04-05T16:08:13.124Z,34.28
2019-04-05T16:10:42.546Z,34.72
2019-04-05T16:13:11.994Z,35.41
2019-04-05T16:15:41.436Z,35.50
2019-04-05T16:18:10.860Z,35.85
2019-04-05T16:20:40.301Z,35.92
2019-04-05T16:23:09.767Z,36.08
2019-04-05T16:25:39.200Z,36.06
2019-04-05T16:28:08.650Z,36.11
2019-04-05T16:30:39.678Z,36.39
2019-04-05T16:33:09.359Z,36.52
2019-04-05T16:35:38.802Z,36.61
2019-04-05T16:38:08.241Z,36.87
2019-04-05T16:40:37.682Z,37.10
2019-04-05T16:43:07.135Z,37.06
2019-04-05T16:45:38.574Z,36.98
2019-04-05T16:48:07.722Z,37.30
2019-04-05T16:50:37.164Z,37.44
2019-04-05T16:53:06.602Z,37.59
2019-04-05T16:55:36.128Z,37.66
2019-04-05T16:58:05.560Z,37.87
2019-04-05T17:00:34.969Z,37.92
2019-04-05T17:03:04.427Z,38.23
2019-04-05T17:05:33.864Z,37.99
2019-04-05T17:08:03.270Z,38.12
2019-04-05T17:10:32.718Z,38.19
2019-04-05T17:13:02.169Z,38.39
2019-04-05T17:15:31.765Z,38.21
2019-04-05T17:18:01.249Z,38.43
2019-04-05T17:20:30.705Z,39.01
2019-04-05T17:23:00.153Z,38.63
2019-04-05T17:25:29.626Z,38.66
2019-04-05T17:27:59.118Z,38.53
2019-04-05T17:30:28.574Z,38.61
2019-04-05T17:32:58.082Z,38.87
2019-04-05T17:35:27.574Z,39.04
2019-04-05T17:37:57.012Z,39.01
2019-04-05T17:40:26.438Z,38.99
2019-04-05T17:42:56.412Z,38.90
2019-04-05T17:45:25.881Z,38.72
2019-04-05T17:47:55.310Z,38.87
2019-04-05T17:50:32.843Z,38.87
2019-04-05T17:53:12.293Z,38.58
2019-04-05T17:55:33.510Z,38.70
2019-04-05T17:58:03.871Z,38.64
2019-04-05T18:00:33.301Z,38.59
2019-04-05T18:03:03.048Z,38.56
2019-04-05T18:05:32.482Z,38.62
2019-04-05T18:08:01.962Z,38.69
2019-04-05T18:10:31.381Z,38.66
2019-04-05T18:13:00.906Z,38.68
2019-04-05T18:15:30.351Z,38.56
2019-04-05T18:17:59.803Z,38.49
2019-04-05T18:20:29.597Z,38.48
2019-04-05T18:22:59.108Z,38.38
2019-04-05T18:25:29.016Z,38.37
2019-04-05T18:27:58.434Z,38.28
2019-04-05T18:30:27.872Z,38.41
2019-04-05T18:32:57.368Z,38.75
2019-04-05T18:35:26.796Z,38.39
2019-04-05T18:37:56.252Z,38.33
2019-04-05T18:40:25.739Z,38.37
2019-04-05T18:42:55.144Z,38.44
2019-04-05T18:45:24.573Z,38.51
2019-04-05T18:47:54.010Z,38.50
2019-04-05T18:50:23.481Z,38.54
2019-04-05T18:52:52.918Z,38.59
2019-04-05T18:55:22.353Z,38.62
2019-04-05T18:58:14.169Z,38.67
2019-04-05T19:00:43.858Z,38.59
2019-04-05T19:03:13.293Z,38.51
2019-04-05T19:05:42.812Z,38.60
2019-04-05T19:08:12.285Z,38.58
2019-04-05T19:10:41.742Z,38.61
2019-04-05T19:13:11.192Z,38.61
2019-04-05T19:15:40.630Z,38.56
2019-04-05T19:18:10.102Z,38.71
2019-04-05T19:20:39.561Z,38.73
2019-04-05T19:23:09.298Z,38.70
2019-04-05T19:25:38.721Z,38.75
2019-04-05T19:28:08.155Z,38.72
2019-04-05T19:48:31.439Z,38.65
2019-04-05T19:50:46.963Z,38.63
2019-04-05T19:53:16.407Z,38.68
2019-04-05T19:55:45.848Z,38.74
2019-04-05T19:58:15.276Z,38.79
2019-04-05T20:00:44.778Z,38.75
2019-04-05T20:03:14.226Z,38.79
2019-04-05T20:05:43.656Z,38.73
2019-04-05T20:08:13.099Z,38.81
2019-04-05T20:10:42.511Z,38.81
2019-04-05T20:13:12.240Z,38.82
2019-04-05T20:15:41.668Z,38.81
2019-04-05T20:18:11.081Z,38.89
2019-04-05T20:20:40.501Z,38.89
2019-04-05T20:23:09.950Z,38.87
2019-04-05T20:25:39.384Z,38.89
2019-04-05T20:28:08.824Z,38.88
2019-04-05T20:30:38.242Z,38.88
2019-04-05T20:33:07.673Z,38.82
2019-04-05T20:35:37.146Z,38.83
2019-04-05T20:38:06.891Z,38.95
2019-04-05T20:40:36.311Z,39.09
2019-04-05T20:43:05.754Z,39.28
2019-04-05T20:45:35.176Z,39.37
2019-04-05T20:48:04.652Z,39.27
2019-04-05T20:50:34.075Z,39.20
2019-04-05T20:53:03.511Z,39.27
2019-04-05T20:55:32.962Z,39.16
2019-04-05T20:58:02.377Z,39.22
2019-04-05T21:00:31.813Z,39.29
2019-04-05T21:03:01.242Z,39.33
2019-04-05T21:05:30.736Z,39.27
2019-04-05T21:08:00.177Z,39.31
2019-04-05T21:10:29.947Z,39.37
2019-04-05T21:12:59.382Z,39.37
2019-04-05T21:15:28.794Z,39.52
2019-04-05T21:17:58.219Z,39.43
2019-04-05T21:20:27.653Z,39.29
2019-04-05T21:22:57.122Z,39.42
2019-04-05T21:25:26.791Z,39.31
2019-04-05T21:27:56.481Z,39.27
2019-04-05T21:30:25.910Z,39.24
2019-04-05T21:32:55.338Z,39.24
2019-04-05T21:35:24.749Z,39.28
2019-04-05T21:37:54.187Z,39.30
2019-04-05T21:40:23.610Z,39.21
2019-04-05T21:42:53.041Z,39.25
2019-04-05T21:45:22.455Z,39.11
2019-04-05T21:47:51.904Z,39.23
2019-04-05T21:50:21.331Z,39.28
2019-04-05T21:52:50.765Z,39.35
2019-04-05T21:55:20.179Z,39.25
2019-04-05T21:57:49.662Z,39.18
2019-04-05T22:00:23.616Z,39.20
2019-04-05T22:02:53.058Z,39.10
2019-04-05T22:05:22.547Z,39.15
2019-04-05T22:07:51.971Z,39.08
2019-04-05T22:10:21.436Z,39.13
2019-04-05T22:12:50.866Z,39.13
2019-04-05T22:15:20.300Z,39.11
2019-04-05T22:17:49.743Z,39.13
2019-04-05T22:20:19.210Z,39.07
2019-04-05T22:22:48.630Z,38.92
2019-04-05T22:25:18.076Z,38.97
2019-04-05T22:27:47.494Z,38.96
2019-04-05T22:30:16.918Z,38.93
2019-04-05T22:32:46.370Z,38.88
2019-04-05T22:35:15.817Z,38.90
2019-04-05T22:37:45.233Z,38.85
2019-04-05T22:40:14.679Z,38.93
2019-04-05T22:42:44.107Z,38.98
2019-04-05T22:45:13.567Z,38.91
2019-04-05T22:47:42.995Z,38.96
2019-04-05T22:50:12.689Z,38.93
2019-04-05T22:52:42.138Z,39.05
2019-04-05T22:55:12.125Z,39.06
2019-04-05T22:57:41.589Z,39.11
2019-04-05T23:00:11.050Z,39.10
2019-04-05T23:02:40.505Z,39.11
2019-04-05T23:05:09.949Z,39.02
2019-04-05T23:07:39.366Z,39.06
2019-04-05T23:10:08.861Z,39.14
2019-04-05T23:12:38.278Z,39.08
2019-04-05T23:15:07.919Z,39.06
2019-04-05T23:17:37.286Z,39.06
2019-04-05T23:20:06.783Z,39.11
2019-04-05T23:22:36.229Z,39.12
2019-04-05T23:25:05.701Z,39.07
2019-04-05T23:27:35.145Z,39.12
2019-04-05T23:30:04.917Z,39.03
2019-04-05T23:32:34.381Z,39.05
2019-04-05T23:35:03.864Z,39.01
2019-04-05T23:37:33.315Z,39.04
2019-04-05T23:40:02.720Z,39.03
2019-04-05T23:42:30.382Z,39.05
2019-04-05T23:44:59.843Z,39.13
2019-04-05T23:47:29.292Z,39.09
2019-04-05T23:49:58.725Z,39.12
2019-04-05T23:52:28.380Z,39.13
2019-04-05T23:54:56.130Z,39.08
2019-04-05T23:57:25.842Z,39.09
2019-04-05T23:59:55.480Z,39.06
